createdAt,value
2023-02-11T00:01:35.646Z,5.80
2023-02-11T00:04:05.138Z,5.87
2023-02-11T00:06:34.540Z,5.86
2023-02-11T00:09:03.274Z,5.91
2023-02-11T00:11:31.016Z,5.86
2023-02-11T00:14:05.036Z,5.94
2023-02-11T00:16:33.017Z,6.00
2023-02-11T00:19:02.095Z,5.92
2023-02-11T00:21:30.113Z,5.91
2023-02-11T00:24:01.792Z,5.94
2023-02-11T00:26:35.575Z,5.95
2023-02-11T00:29:05.158Z,5.90
2023-02-11T00:31:33.877Z,5.86
2023-02-11T00:34:01.985Z,5.83
2023-02-11T00:36:30.638Z,5.82
2023-02-11T00:39:00.025Z,5.78
2023-02-11T00:41:29.323Z,5.71
2023-02-11T00:43:57.175Z,5.63
2023-02-11T00:46:25.036Z,5.59
2023-02-11T00:48:55.183Z,5.58
2023-02-11T00:51:23.071Z,5.56
2023-02-11T00:53:51.775Z,5.57
2023-02-11T00:56:19.822Z,5.56
2023-02-11T00:58:47.697Z,5.55
2023-02-11T01:01:15.424Z,5.54
2023-02-11T01:03:43.909Z,5.54
2023-02-11T01:06:12.426Z,5.54
2023-02-11T01:08:40.389Z,5.50
2023-02-11T01:11:19.000Z,5.60
2023-02-11T01:13:48.636Z,5.62
2023-02-11T01:16:17.137Z,5.63
2023-02-11T01:18:46.741Z,5.66
2023-02-11T01:21:14.956Z,5.67
2023-02-11T01:23:44.281Z,5.71
2023-02-11T01:26:13.050Z,5.72
2023-02-11T01:28:40.763Z,5.75
2023-02-11T01:31:08.506Z,5.78
2023-02-11T01:33:36.345Z,5.79
2023-02-11T01:36:07.732Z,5.81
2023-02-11T01:38:36.145Z,5.85
2023-02-11T01:41:09.018Z,5.87
2023-02-11T01:43:42.796Z,5.89
2023-02-11T01:46:36.216Z,5.88
2023-02-11T01:49:16.202Z,5.95
2023-02-11T01:51:54.069Z,5.95
2023-02-11T01:54:47.056Z,5.99
2023-02-11T01:57:22.950Z,5.99
2023-02-11T02:00:24.287Z,5.98
2023-02-11T02:03:06.413Z,5.98
2023-02-11T02:06:12.771Z,5.96
2023-02-11T02:09:04.484Z,5.94
2023-02-11T02:11:32.332Z,5.95
2023-02-11T02:13:59.988Z,5.91
2023-02-11T02:16:35.060Z,5.90
2023-02-11T02:19:24.232Z,5.88
2023-02-11T02:22:25.139Z,5.87
2023-02-11T02:26:10.245Z,5.88
2023-02-11T02:29:11.862Z,5.88
2023-02-11T02:31:51.455Z,5.88
2023-02-11T02:34:54.045Z,5.87
2023-02-11T02:37:32.441Z,5.84
2023-02-11T02:40:07.140Z,5.79
2023-02-11T02:42:35.561Z,5.77
2023-02-11T02:45:03.509Z,5.73
2023-02-11T02:47:31.151Z,5.71
2023-02-11T02:49:58.946Z,5.66
2023-02-11T02:52:42.958Z,5.60
2023-02-11T02:55:39.857Z,5.55
2023-02-11T02:58:25.538Z,5.53
2023-02-11T03:01:13.309Z,5.49
2023-02-11T03:03:52.832Z,5.44
2023-02-11T03:06:48.823Z,5.41
2023-02-11T03:09:34.961Z,5.33
2023-02-11T03:12:03.352Z,5.29
2023-02-11T03:14:32.601Z,5.27
2023-02-11T03:17:03.612Z,5.22
2023-02-11T03:19:43.377Z,5.22
2023-02-11T03:22:23.214Z,5.19
2023-02-11T03:24:51.198Z,5.15
2023-02-11T03:27:43.427Z,5.11
2023-02-11T03:30:13.900Z,5.08
2023-02-11T03:32:52.749Z,5.07
2023-02-11T03:35:31.996Z,5.05
2023-02-11T03:38:42.282Z,4.99
2023-02-11T03:41:10.841Z,4.95
2023-02-11T03:43:48.047Z,4.92
2023-02-11T03:46:19.967Z,4.89
2023-02-11T03:48:53.064Z,4.91
2023-02-11T03:51:22.726Z,4.90
2023-02-11T03:53:53.284Z,4.88
2023-02-11T03:56:25.936Z,4.92
2023-02-11T03:58:53.866Z,4.89
2023-02-11T04:01:21.801Z,4.90
2023-02-11T04:03:49.544Z,4.88
2023-02-11T04:06:17.253Z,4.84
2023-02-11T04:08:44.974Z,4.81
2023-02-11T04:11:12.638Z,4.81
2023-02-11T04:13:40.382Z,4.82
2023-02-11T04:16:08.282Z,4.82
2023-02-11T04:18:35.966Z,4.81
2023-02-11T04:21:03.845Z,4.78
2023-02-11T04:23:31.524Z,4.78
2023-02-11T04:25:59.445Z,4.76
2023-02-11T04:28:29.499Z,4.76
2023-02-11T04:30:57.790Z,4.78
2023-02-11T04:33:25.574Z,4.84
2023-02-11T04:35:53.280Z,4.85
2023-02-11T04:38:24.074Z,4.80
2023-02-11T04:40:51.913Z,4.87
2023-02-11T04:43:19.525Z,4.87
2023-02-11T04:45:47.147Z,4.86
2023-02-11T04:48:14.809Z,4.88
2023-02-11T04:50:42.454Z,4.90
2023-02-11T04:53:10.144Z,4.93
2023-02-11T04:55:37.743Z,4.98
2023-02-11T04:58:05.705Z,5.00
2023-02-11T05:00:33.338Z,5.06
2023-02-11T05:03:01.053Z,5.14
2023-02-11T05:05:28.705Z,5.15
2023-02-11T05:07:57.106Z,5.16
2023-02-11T05:10:24.777Z,5.17
2023-02-11T05:12:55.288Z,5.17
2023-02-11T05:15:23.495Z,5.18
2023-02-11T05:17:51.185Z,5.21
2023-02-11T05:20:19.028Z,5.23
2023-02-11T05:22:46.897Z,5.26
2023-02-11T05:25:14.869Z,5.20
2023-02-11T05:27:42.553Z,5.25
2023-02-11T05:30:11.773Z,5.23
2023-02-11T05:32:39.486Z,5.23
2023-02-11T05:35:08.288Z,5.25
2023-02-11T05:37:36.352Z,5.27
2023-02-11T05:40:04.933Z,5.28
2023-02-11T05:42:32.593Z,5.20
2023-02-11T05:45:00.345Z,5.21
2023-02-11T05:47:28.166Z,5.21
2023-02-11T05:49:55.838Z,5.18
2023-02-11T05:52:24.332Z,5.15
2023-02-11T05:54:52.169Z,5.13
2023-02-11T05:57:19.828Z,5.14
2023-02-11T05:59:47.526Z,5.13
2023-02-11T06:02:15.664Z,5.11
2023-02-11T06:04:44.350Z,5.07
2023-02-11T06:07:11.974Z,5.01
2023-02-11T06:09:39.657Z,5.01
2023-02-11T06:12:07.544Z,5.01
2023-02-11T06:14:35.691Z,5.01
2023-02-11T06:17:04.039Z,4.97
2023-02-11T06:19:31.755Z,4.93
2023-02-11T06:21:59.435Z,4.89
2023-02-11T06:24:51.047Z,4.85
2023-02-11T06:27:14.853Z,4.80
2023-02-11T06:29:42.539Z,4.83
2023-02-11T06:32:23.340Z,4.84
2023-02-11T06:34:57.794Z,4.87
2023-02-11T06:37:25.504Z,4.92
2023-02-11T06:39:53.246Z,4.90
2023-02-11T06:42:20.909Z,4.88
2023-02-11T06:44:48.536Z,4.87
2023-02-11T06:47:16.182Z,4.82
2023-02-11T06:49:43.929Z,4.81
2023-02-11T06:52:11.661Z,4.80
2023-02-11T06:54:39.361Z,4.82
2023-02-11T06:57:06.950Z,4.85
2023-02-11T06:59:34.647Z,4.85
2023-02-11T07:02:02.343Z,4.85
2023-02-11T07:04:30.070Z,4.87
2023-02-11T07:06:57.736Z,4.85
2023-02-11T07:09:25.464Z,4.85
2023-02-11T07:11:53.321Z,4.88
2023-02-11T07:14:21.037Z,4.89
2023-02-11T07:16:48.713Z,4.90
2023-02-11T07:19:16.370Z,4.90
2023-02-11T07:21:43.963Z,4.89
2023-02-11T07:24:11.714Z,4.95
2023-02-11T07:26:39.462Z,5.02
2023-02-11T07:29:07.278Z,5.09
2023-02-11T07:31:35.049Z,5.15
2023-02-11T07:34:03.372Z,5.20
2023-02-11T07:36:32.311Z,5.25
2023-02-11T07:39:00.373Z,5.33
2023-02-11T07:41:28.437Z,5.43
2023-02-11T07:43:56.524Z,5.49
2023-02-11T07:46:27.323Z,5.57
2023-02-11T07:48:56.001Z,5.62
2023-02-11T07:51:27.793Z,5.65
2023-02-11T07:53:58.529Z,5.70
2023-02-11T07:56:26.331Z,5.74
2023-02-11T07:58:55.376Z,5.76
2023-02-11T08:01:28.342Z,5.78
2023-02-11T08:03:58.809Z,5.82
2023-02-11T08:06:30.157Z,5.81
2023-02-11T08:08:58.696Z,5.82
2023-02-11T08:11:28.811Z,5.88
2023-02-11T08:13:57.114Z,5.89
2023-02-11T08:16:26.715Z,5.95
2023-02-11T08:18:57.732Z,5.95
2023-02-11T08:21:26.312Z,5.97
2023-02-11T08:23:54.250Z,5.96
2023-02-11T08:26:29.103Z,6.01
2023-02-11T08:28:58.205Z,6.03
2023-02-11T08:31:33.374Z,6.03
2023-02-11T08:34:02.477Z,6.03
2023-02-11T08:36:34.360Z,6.07
2023-02-11T08:39:22.198Z,6.09
2023-02-11T08:41:53.649Z,6.12
2023-02-11T08:44:22.692Z,6.14
2023-02-11T08:46:51.696Z,6.17
2023-02-11T08:49:19.691Z,6.22
2023-02-11T08:51:48.594Z,6.25
2023-02-11T08:54:16.558Z,6.27
2023-02-11T08:56:44.572Z,6.24
2023-02-11T08:59:15.381Z,6.25
2023-02-11T09:01:44.347Z,6.28
2023-02-11T09:04:12.295Z,6.31
2023-02-11T09:06:40.488Z,6.29
2023-02-11T09:09:13.634Z,6.26
2023-02-11T09:11:42.739Z,6.32
2023-02-11T09:14:19.557Z,6.35
2023-02-11T09:16:47.712Z,6.41
2023-02-11T09:19:15.553Z,6.36
2023-02-11T09:21:43.477Z,6.45
2023-02-11T09:24:11.763Z,6.49
2023-02-11T09:26:42.389Z,6.53
2023-02-11T09:29:10.306Z,6.57
2023-02-11T09:31:38.075Z,6.61
2023-02-11T09:34:07.209Z,6.63
2023-02-11T09:36:38.808Z,6.66
2023-02-11T09:39:12.412Z,6.64
2023-02-11T09:42:02.370Z,6.75
2023-02-11T09:44:34.599Z,6.78
2023-02-11T09:47:16.180Z,6.83
2023-02-11T09:49:56.187Z,6.87
2023-02-11T09:52:55.901Z,6.90
2023-02-11T09:55:39.702Z,6.92
2023-02-11T09:58:34.813Z,6.95
2023-02-11T10:01:46.435Z,6.95
2023-02-11T10:05:11.969Z,6.97
2023-02-11T10:08:16.585Z,7.00
2023-02-11T10:10:59.718Z,7.01
2023-02-11T10:13:46.743Z,7.02
2023-02-11T10:16:23.330Z,7.05
2023-02-11T10:19:11.397Z,7.08
2023-02-11T10:22:08.939Z,7.16
2023-02-11T10:24:37.655Z,7.24
2023-02-11T10:27:29.171Z,7.31
2023-02-11T10:30:10.538Z,7.38
2023-02-11T10:33:14.074Z,7.42
2023-02-11T10:35:43.931Z,7.41
2023-02-11T10:38:12.408Z,7.40
2023-02-11T10:40:40.597Z,7.42
2023-02-11T10:43:15.635Z,7.44
2023-02-11T10:45:51.318Z,7.48
2023-02-11T10:48:52.841Z,7.48
2023-02-11T10:51:22.479Z,7.53
2023-02-11T10:54:06.211Z,7.57
2023-02-11T10:56:41.682Z,7.65
2023-02-11T10:59:21.135Z,7.68
2023-02-11T11:01:57.524Z,7.71
2023-02-11T11:04:32.193Z,7.74
2023-02-11T11:07:23.978Z,7.81
2023-02-11T11:10:36.156Z,7.86
2023-02-11T11:13:03.919Z,7.87
2023-02-11T11:15:32.583Z,7.89
2023-02-11T11:18:22.344Z,7.88
2023-02-11T11:21:01.583Z,7.90
2023-02-11T11:23:33.002Z,7.97
2023-02-11T11:26:16.054Z,8.00
2023-02-11T11:29:07.233Z,8.01
2023-02-11T11:31:56.994Z,8.07
2023-02-11T11:34:32.106Z,8.02
2023-02-11T11:37:10.721Z,8.04
2023-02-11T11:39:40.803Z,8.05
2023-02-11T11:42:32.838Z,8.15
2023-02-11T11:45:25.871Z,8.17
2023-02-11T11:48:28.889Z,8.14
2023-02-11T11:51:00.464Z,8.16
2023-02-11T11:53:39.402Z,8.16
2023-02-11T11:56:27.325Z,8.13
2023-02-11T11:58:55.095Z,8.19
2023-02-11T12:01:22.712Z,8.22
2023-02-11T12:04:20.444Z,8.21
2023-02-11T12:07:23.979Z,8.23
2023-02-11T12:10:29.187Z,8.30
2023-02-11T12:13:18.515Z,8.29
2023-02-11T12:16:00.908Z,8.35
2023-02-11T12:19:10.160Z,8.43
2023-02-11T12:22:11.204Z,8.42
2023-02-11T12:25:27.765Z,8.40
2023-02-11T12:28:07.343Z,8.45
2023-02-11T12:30:59.561Z,8.43
2023-02-11T12:33:53.140Z,8.51
2023-02-11T12:36:36.462Z,8.55
2023-02-11T12:39:34.014Z,8.54
2023-02-11T12:43:16.516Z,8.58
2023-02-11T12:46:08.098Z,8.61
2023-02-11T12:48:44.738Z,8.61
2023-02-11T12:51:32.705Z,8.67
2023-02-11T12:54:28.473Z,8.71
2023-02-11T12:57:02.262Z,8.67
2023-02-11T12:59:41.931Z,8.72
2023-02-11T13:02:28.963Z,8.68
2023-02-11T13:05:41.359Z,8.71
2023-02-11T13:08:21.213Z,8.69
2023-02-11T13:11:19.236Z,8.69
2023-02-11T13:14:01.012Z,8.74
2023-02-11T13:16:48.574Z,8.77
2023-02-11T13:19:53.085Z,8.78
2023-02-11T13:22:46.710Z,8.84
2023-02-11T13:26:30.061Z,8.90
2023-02-11T13:29:32.057Z,8.95
2023-02-11T13:32:14.533Z,8.93
2023-02-11T13:34:42.114Z,8.88
2023-02-11T13:37:38.646Z,8.82
2023-02-11T13:40:07.855Z,8.84
2023-02-11T13:42:52.760Z,8.75
2023-02-11T13:45:43.891Z,8.81
2023-02-11T13:48:25.801Z,8.77
2023-02-11T13:51:01.216Z,8.75
2023-02-11T13:53:30.426Z,8.79
2023-02-11T13:56:30.601Z,8.80
2023-02-11T13:59:02.859Z,8.79
2023-02-11T14:02:28.375Z,8.81
2023-02-11T14:05:23.637Z,8.84
2023-02-11T14:08:28.483Z,8.86
2023-02-11T14:11:08.461Z,8.85
2023-02-11T14:13:57.955Z,8.88
2023-02-11T14:16:37.343Z,8.80
2023-02-11T14:19:06.358Z,8.79
2023-02-11T14:21:40.367Z,8.81
2023-02-11T14:24:14.721Z,8.88
2023-02-11T14:27:00.227Z,8.89
2023-02-11T14:29:51.905Z,8.89
2023-02-11T14:33:03.886Z,8.88
2023-02-11T14:36:20.289Z,8.86
2023-02-11T14:39:15.579Z,8.89
2023-02-11T14:41:48.018Z,8.92
2023-02-11T14:44:25.958Z,8.94
2023-02-11T14:46:55.431Z,8.93
2023-02-11T14:49:34.865Z,8.95
2023-02-11T14:52:26.310Z,8.92
2023-02-11T14:55:07.544Z,8.91
2023-02-11T14:57:35.284Z,8.85
2023-02-11T15:00:16.482Z,8.87
2023-02-11T15:02:45.277Z,8.88
2023-02-11T15:05:26.063Z,8.87
2023-02-11T15:08:02.085Z,8.84
2023-02-11T15:10:43.228Z,8.81
2023-02-11T15:13:20.596Z,8.82
2023-02-11T15:15:50.922Z,8.83
2023-02-11T15:18:24.292Z,8.83
2023-02-11T15:20:52.638Z,8.86
2023-02-11T15:23:27.448Z,8.83
2023-02-11T15:25:58.132Z,8.84
2023-02-11T15:28:32.020Z,8.86
2023-02-11T15:31:14.543Z,8.79
2023-02-11T15:33:42.712Z,8.83
2023-02-11T15:36:13.719Z,8.81
2023-02-11T15:38:41.572Z,8.82
2023-02-11T15:41:37.573Z,8.78
2023-02-11T15:44:05.333Z,8.86
2023-02-11T15:46:40.883Z,8.87
2023-02-11T15:49:19.251Z,8.77
2023-02-11T15:51:47.428Z,8.76
2023-02-11T15:54:26.863Z,8.81
2023-02-11T15:57:08.410Z,8.76
2023-02-11T15:59:46.238Z,8.79
2023-02-11T16:02:31.688Z,8.80
2023-02-11T16:05:09.486Z,8.74
2023-02-11T16:07:47.089Z,8.71
2023-02-11T16:10:20.671Z,8.69
2023-02-11T16:12:56.511Z,8.61
2023-02-11T16:15:50.902Z,8.56
2023-02-11T16:18:38.397Z,8.59
2023-02-11T16:21:16.968Z,8.59
2023-02-11T16:23:53.521Z,8.56
2023-02-11T16:26:33.084Z,8.55
2023-02-11T16:29:25.952Z,8.52
2023-02-11T16:32:06.372Z,8.49
2023-02-11T16:34:34.228Z,8.51
2023-02-11T16:37:05.407Z,8.51
2023-02-11T16:39:33.834Z,8.49
2023-02-11T16:42:02.225Z,8.49
2023-02-11T16:44:30.421Z,8.47
2023-02-11T16:47:06.107Z,8.47
2023-02-11T16:49:41.109Z,8.48
2023-02-11T16:52:14.984Z,8.46
2023-02-11T16:54:42.813Z,8.41
2023-02-11T16:57:36.870Z,8.41
2023-02-11T17:00:07.476Z,8.39
2023-02-11T17:02:37.576Z,8.38
2023-02-11T17:05:11.993Z,8.35
2023-02-11T17:07:39.604Z,8.35
2023-02-11T17:10:27.652Z,8.33
2023-02-11T17:12:55.374Z,8.31
2023-02-11T17:15:23.115Z,8.29
2023-02-11T17:17:50.714Z,8.33
2023-02-11T17:20:18.886Z,8.32
2023-02-11T17:22:46.584Z,8.30
2023-02-11T17:25:14.295Z,8.27
2023-02-11T17:27:42.259Z,8.23
2023-02-11T17:30:11.620Z,8.27
2023-02-11T17:32:39.237Z,8.32
2023-02-11T17:35:07.539Z,8.33
2023-02-11T17:37:35.248Z,8.28
2023-02-11T17:40:03.244Z,8.31
2023-02-11T17:42:31.364Z,8.28
2023-02-11T17:44:59.057Z,8.31
2023-02-11T17:47:26.723Z,8.27
2023-02-11T17:49:54.453Z,8.27
2023-02-11T17:52:24.246Z,8.18
2023-02-11T17:54:51.983Z,8.18
2023-02-11T17:57:20.087Z,8.22
2023-02-11T17:59:47.890Z,8.21
2023-02-11T18:02:16.061Z,8.18
2023-02-11T18:04:44.423Z,8.14
2023-02-11T18:07:12.328Z,8.13
2023-02-11T18:09:41.303Z,8.13
2023-02-11T18:12:09.231Z,8.13
2023-02-11T18:14:41.106Z,8.15
2023-02-11T18:17:09.217Z,8.17
2023-02-11T18:19:37.624Z,8.17
2023-02-11T18:22:05.698Z,8.12
2023-02-11T18:24:33.313Z,8.11
2023-02-11T18:27:01.178Z,8.03
2023-02-11T18:29:28.974Z,7.97
2023-02-11T18:31:57.506Z,7.98
2023-02-11T18:34:26.227Z,8.00
2023-02-11T18:36:54.182Z,8.02
2023-02-11T18:39:24.248Z,8.08
2023-02-11T18:41:55.070Z,8.11
2023-02-11T18:44:24.685Z,8.10
2023-02-11T18:46:53.249Z,8.14
2023-02-11T18:49:20.977Z,8.16
2023-02-11T18:51:48.702Z,8.15
2023-02-11T18:54:16.338Z,8.20
2023-02-11T18:56:44.014Z,8.10
2023-02-11T18:59:12.637Z,8.11
2023-02-11T19:01:43.327Z,8.11
2023-02-11T19:04:11.439Z,8.12
2023-02-11T19:06:39.941Z,8.14
2023-02-11T19:09:11.227Z,8.16
2023-02-11T19:11:54.133Z,8.17
2023-02-11T19:14:23.078Z,8.14
2023-02-11T19:16:53.582Z,8.15
2023-02-11T19:19:24.407Z,8.16
2023-02-11T19:21:52.283Z,8.15
2023-02-11T19:24:20.726Z,8.11
2023-02-11T19:26:50.525Z,8.11
2023-02-11T19:29:18.774Z,8.12
2023-02-11T19:31:47.075Z,8.09
2023-02-11T19:34:16.943Z,8.07
2023-02-11T19:36:44.643Z,8.02
2023-02-11T19:39:12.670Z,8.06
2023-02-11T19:41:40.551Z,8.07
2023-02-11T19:44:09.589Z,8.08
2023-02-11T19:46:40.953Z,8.09
2023-02-11T19:49:10.062Z,8.01
2023-02-11T19:51:39.330Z,7.94
2023-02-11T19:54:07.596Z,7.99
2023-02-11T19:56:37.877Z,7.86
2023-02-11T19:59:08.871Z,7.96
2023-02-11T20:01:37.139Z,7.88
2023-02-11T20:04:05.412Z,7.87
2023-02-11T20:06:35.184Z,7.90
2023-02-11T20:09:07.687Z,7.94
2023-02-11T20:11:37.013Z,7.92
2023-02-11T20:14:06.823Z,7.93
2023-02-11T20:16:47.611Z,7.89
2023-02-11T20:19:21.536Z,7.86
2023-02-11T20:21:55.994Z,7.90
2023-02-11T20:24:25.250Z,7.92
2023-02-11T20:26:56.118Z,7.96
2023-02-11T20:29:25.776Z,7.97
2023-02-11T20:31:54.565Z,7.93
2023-02-11T20:34:22.462Z,7.98
2023-02-11T20:36:53.108Z,7.98
2023-02-11T20:39:23.729Z,8.00
2023-02-11T20:41:53.318Z,8.01
2023-02-11T20:44:22.490Z,8.02
2023-02-11T20:46:51.508Z,8.01
2023-02-11T20:49:23.655Z,8.01
2023-02-11T20:51:53.685Z,7.99
2023-02-11T20:54:23.498Z,7.97
2023-02-11T20:56:53.643Z,8.00
2023-02-11T20:59:22.607Z,7.98
2023-02-11T21:01:54.082Z,7.99
2023-02-11T21:04:29.578Z,7.98
2023-02-11T21:07:00.486Z,8.00
2023-02-11T21:09:31.494Z,8.01
2023-02-11T21:12:00.594Z,8.01
2023-02-11T21:14:28.364Z,8.00
2023-02-11T21:16:56.435Z,8.01
2023-02-11T21:19:24.434Z,8.01
2023-02-11T21:21:52.502Z,7.97
2023-02-11T21:24:20.289Z,7.99
2023-02-11T21:26:47.999Z,7.99
2023-02-11T21:29:15.733Z,7.98
2023-02-11T21:31:43.546Z,7.97
2023-02-11T21:34:11.572Z,7.95
2023-02-11T21:36:39.258Z,7.94
2023-02-11T21:39:07.018Z,7.93
2023-02-11T21:41:35.208Z,7.94
2023-02-11T21:44:02.869Z,7.95
2023-02-11T21:46:31.124Z,7.89
2023-02-11T21:49:00.353Z,7.87
2023-02-11T21:51:28.124Z,7.86
2023-02-11T21:54:03.668Z,7.82
2023-02-11T21:56:33.691Z,7.80
2023-02-11T21:59:01.456Z,7.82
2023-02-11T22:01:33.141Z,7.81
2023-02-11T22:04:02.203Z,7.77
2023-02-11T22:06:34.063Z,7.66
2023-02-11T22:09:07.895Z,7.68
2023-02-11T22:11:35.885Z,7.70
2023-02-11T22:14:03.907Z,7.72
2023-02-11T22:16:31.749Z,7.74
2023-02-11T22:19:02.303Z,7.70
2023-02-11T22:21:30.398Z,7.69
2023-02-11T22:23:58.153Z,7.72
2023-02-11T22:26:27.871Z,7.68
2023-02-11T22:28:56.817Z,7.71
2023-02-11T22:31:28.773Z,7.67
2023-02-11T22:33:57.807Z,7.65
2023-02-11T22:36:32.589Z,7.65
2023-02-11T22:39:07.830Z,7.65
2023-02-11T22:41:35.551Z,7.58
2023-02-11T22:44:03.190Z,7.54
2023-02-11T22:46:30.948Z,7.53
2023-02-11T22:48:58.664Z,7.57
2023-02-11T22:51:30.057Z,7.60
2023-02-11T22:54:04.758Z,7.63
2023-02-11T22:56:34.873Z,7.65
2023-02-11T22:59:07.192Z,7.67
2023-02-11T23:01:35.534Z,7.69
2023-02-11T23:04:06.396Z,7.69
2023-02-11T23:06:34.874Z,7.69
2023-02-11T23:09:05.694Z,7.66
2023-02-11T23:11:35.409Z,7.68
2023-02-11T23:14:04.116Z,7.66
2023-02-11T23:16:34.665Z,7.65
2023-02-11T23:19:06.944Z,7.62
2023-02-11T23:21:38.149Z,7.66
2023-02-11T23:24:11.691Z,7.65
2023-02-11T23:26:41.685Z,7.62
2023-02-11T23:29:10.368Z,7.62
2023-02-11T23:31:40.680Z,7.63
2023-02-11T23:34:09.471Z,7.65
2023-02-11T23:36:37.596Z,7.63
2023-02-11T23:39:05.576Z,7.62
2023-02-11T23:41:33.264Z,7.61
2023-02-11T23:44:00.998Z,7.61
2023-02-11T23:46:28.940Z,7.61
2023-02-11T23:48:56.759Z,7.61
2023-02-11T23:51:24.767Z,7.62
2023-02-11T23:53:54.163Z,7.61
2023-02-11T23:56:25.952Z,7.62
2023-02-11T23:58:57.507Z,7.64
